createdAt,value
2018-03-06T00:01:13.123Z,16.73
2018-03-06T00:03:40.696Z,17.70
2018-03-06T00:06:08.231Z,18.33
2018-03-06T00:08:36.526Z,17.03
2018-03-06T00:11:04.836Z,17.93
2018-03-06T00:13:32.368Z,16.30
2018-03-06T00:16:00.655Z,15.77
2018-03-06T00:18:28.187Z,18.50
2018-03-06T00:20:55.727Z,14.93
2018-03-06T00:23:23.264Z,17.87
2018-03-06T00:25:50.836Z,19.03
2018-03-06T00:28:18.368Z,15.17
2018-03-06T00:30:45.910Z,19.67
2018-03-06T00:33:13.518Z,19.47
2018-03-06T00:35:41.083Z,17.10
2018-03-06T00:38:09.581Z,16.73
2018-03-06T00:40:37.141Z,16.63
2018-03-06T00:43:04.669Z,17.83
2018-03-06T00:45:33.077Z,17.47
2018-03-06T00:48:00.606Z,17.03
2018-03-06T00:50:28.143Z,15.93
2018-03-06T00:52:55.758Z,16.67
2018-03-06T00:55:23.330Z,18.27
2018-03-06T00:57:50.861Z,18.40
2018-03-06T01:00:18.389Z,16.47
2018-03-06T01:02:46.029Z,16.03
2018-03-06T01:05:13.591Z,16.80
2018-03-06T01:07:41.149Z,16.27
2018-03-06T01:10:08.682Z,18.23
2018-03-06T01:12:36.209Z,16.90
2018-03-06T01:15:03.843Z,17.30
2018-03-06T01:17:31.384Z,17.60
2018-03-06T01:19:59.680Z,17.83
2018-03-06T01:22:27.351Z,15.17
2018-03-06T01:24:54.892Z,18.13
2018-03-06T01:27:23.198Z,16.97
2018-03-06T01:29:50.737Z,17.50
2018-03-06T01:32:19.034Z,17.60
2018-03-06T01:34:46.573Z,16.67
2018-03-06T01:37:14.112Z,17.07
2018-03-06T01:39:41.640Z,16.33
2018-03-06T01:42:09.168Z,16.23
2018-03-06T01:44:36.958Z,17.70
2018-03-06T01:47:04.532Z,17.93
2018-03-06T01:49:32.059Z,18.20
2018-03-06T01:51:59.604Z,15.73
2018-03-06T01:54:27.231Z,17.50
2018-03-06T01:56:54.762Z,17.50
2018-03-06T01:59:23.077Z,19.10
2018-03-06T02:01:50.613Z,16.60
2018-03-06T02:04:18.934Z,16.90
2018-03-06T02:06:46.482Z,17.67
2018-03-06T02:09:14.042Z,17.30
2018-03-06T02:11:41.619Z,16.50
2018-03-06T02:14:09.147Z,15.37
2018-03-06T02:16:37.454Z,17.77
2018-03-06T02:19:04.986Z,15.77
2018-03-06T02:21:33.284Z,15.07
2018-03-06T02:24:01.586Z,16.33
2018-03-06T02:26:29.141Z,16.33
2018-03-06T02:28:56.663Z,17.50
2018-03-06T02:31:24.195Z,16.80
2018-03-06T02:33:51.732Z,16.70
2018-03-06T02:36:19.269Z,17.23
2018-03-06T02:38:47.565Z,15.43
2018-03-06T02:41:15.872Z,19.97
2018-03-06T02:43:43.430Z,17.60
2018-03-06T02:46:12.624Z,16.03
2018-03-06T02:48:40.189Z,16.33
2018-03-06T02:51:07.761Z,16.53
2018-03-06T02:53:35.296Z,17.07
2018-03-06T02:56:03.603Z,15.53
2018-03-06T02:58:31.139Z,15.77
2018-03-06T03:00:59.431Z,16.53
2018-03-06T03:03:26.961Z,15.20
2018-03-06T03:05:56.000Z,16.67
2018-03-06T03:08:23.534Z,16.27
2018-03-06T03:10:51.133Z,16.90
2018-03-06T03:13:18.657Z,17.27
2018-03-06T03:15:46.260Z,17.50
2018-03-06T03:18:13.790Z,18.83
2018-03-06T03:20:42.936Z,16.07
2018-03-06T03:23:10.481Z,17.10
2018-03-06T03:25:38.012Z,15.73
2018-03-06T03:28:05.536Z,17.83
2018-03-06T03:30:33.087Z,17.50
2018-03-06T03:33:00.641Z,17.57
2018-03-06T03:35:28.172Z,16.63
2018-03-06T03:37:55.703Z,17.20
2018-03-06T03:40:23.236Z,15.20
2018-03-06T03:42:50.765Z,16.83
2018-03-06T03:45:18.359Z,18.07
2018-03-06T03:47:45.893Z,15.47
2018-03-06T03:50:13.495Z,15.50
2018-03-06T03:52:41.025Z,17.03
2018-03-06T03:55:09.614Z,16.73
2018-03-06T03:57:37.139Z,16.33
2018-03-06T04:00:04.668Z,16.90
2018-03-06T04:02:32.253Z,18.13
2018-03-06T04:04:59.814Z,16.50
2018-03-06T04:07:27.363Z,17.13
2018-03-06T04:09:55.004Z,19.03
2018-03-06T04:12:23.317Z,15.50
2018-03-06T04:14:50.878Z,16.00
2018-03-06T04:17:18.466Z,17.90
2018-03-06T04:19:45.988Z,16.43
2018-03-06T04:22:14.277Z,17.17
2018-03-06T04:24:41.809Z,16.13
2018-03-06T04:27:09.416Z,15.37
2018-03-06T04:29:36.948Z,15.60
2018-03-06T04:32:05.257Z,17.53
2018-03-06T04:34:32.779Z,16.13
2018-03-06T04:37:00.322Z,15.27
2018-03-06T04:39:27.957Z,17.50
2018-03-06T04:41:55.499Z,18.27
2018-03-06T04:44:23.808Z,17.90
2018-03-06T04:46:51.338Z,19.90
2018-03-06T04:49:19.644Z,18.60
2018-03-06T04:51:47.178Z,18.13
2018-03-06T04:54:15.489Z,18.30
2018-03-06T04:56:43.019Z,20.77
2018-03-06T04:59:11.328Z,18.07
2018-03-06T05:01:38.891Z,17.80
2018-03-06T05:04:06.469Z,21.13
2018-03-06T05:06:33.988Z,17.43
2018-03-06T05:09:01.596Z,17.63
2018-03-06T05:11:29.156Z,18.10
2018-03-06T05:13:57.541Z,20.50
2018-03-06T05:16:25.083Z,16.77
2018-03-06T05:18:53.382Z,18.83
2018-03-06T05:21:20.918Z,20.00
2018-03-06T05:23:49.220Z,19.83
2018-03-06T05:26:16.793Z,18.87
2018-03-06T05:28:44.361Z,17.30
2018-03-06T05:31:11.892Z,18.87
2018-03-06T05:33:40.853Z,21.63
2018-03-06T05:36:08.482Z,18.17
2018-03-06T05:38:36.002Z,19.97
2018-03-06T05:41:03.532Z,17.77
2018-03-06T05:43:31.058Z,19.47
2018-03-06T05:45:58.594Z,17.93
2018-03-06T05:48:26.129Z,16.47
2018-03-06T05:50:53.658Z,20.80
2018-03-06T05:53:21.184Z,23.83
2018-03-06T05:55:48.794Z,25.20
2018-03-06T05:58:16.323Z,21.67
2018-03-06T06:00:43.850Z,21.30
2018-03-06T06:03:12.304Z,23.43
2018-03-06T06:05:39.868Z,20.70
2018-03-06T06:08:07.396Z,20.33
2018-03-06T06:10:34.920Z,22.17
2018-03-06T06:13:02.983Z,24.77
2018-03-06T06:15:30.517Z,22.97
2018-03-06T06:17:58.815Z,25.37
2018-03-06T06:20:27.095Z,25.47
2018-03-06T06:22:55.380Z,25.77
2018-03-06T06:25:22.892Z,23.00
2018-03-06T06:27:50.509Z,24.50
2018-03-06T06:30:18.069Z,23.80
2018-03-06T06:32:45.635Z,24.97
2018-03-06T06:35:14.017Z,21.90
2018-03-06T06:37:42.405Z,26.40
2018-03-06T06:40:09.963Z,24.97
2018-03-06T06:42:38.348Z,23.13
2018-03-06T06:45:07.243Z,29.00
2018-03-06T06:47:35.522Z,30.33
2018-03-06T06:50:03.817Z,27.87
2018-03-06T06:52:31.329Z,30.93
2018-03-06T06:54:58.924Z,24.73
2018-03-06T06:57:27.223Z,28.80
2018-03-06T06:59:54.741Z,30.37
2018-03-06T07:02:22.254Z,26.20
2018-03-06T07:04:49.797Z,26.40
2018-03-06T07:07:18.080Z,32.27
2018-03-06T07:09:46.478Z,27.80
2018-03-06T07:12:14.002Z,29.93
2018-03-06T07:14:41.601Z,27.47
2018-03-06T07:17:09.123Z,28.67
2018-03-06T07:19:36.721Z,31.07
2018-03-06T07:22:05.100Z,30.43
2018-03-06T07:24:33.382Z,36.80
2018-03-06T07:27:01.663Z,29.67
2018-03-06T07:29:29.936Z,32.20
2018-03-06T07:31:58.226Z,30.13
2018-03-06T07:34:26.517Z,28.83
2018-03-06T07:36:54.057Z,28.07
2018-03-06T07:39:22.084Z,30.77
2018-03-06T07:41:49.650Z,29.00
2018-03-06T07:44:17.130Z,28.47
2018-03-06T07:46:44.647Z,29.83
2018-03-06T07:49:12.165Z,27.53
2018-03-06T07:51:39.771Z,28.93
2018-03-06T07:54:07.333Z,29.20
2018-03-06T07:56:34.858Z,30.40
2018-03-06T07:59:02.388Z,29.10
2018-03-06T08:01:29.921Z,29.77
2018-03-06T08:03:58.201Z,31.93
2018-03-06T08:06:26.481Z,25.40
2018-03-06T08:08:54.767Z,27.90
2018-03-06T08:11:22.284Z,31.87
2018-03-06T08:13:49.799Z,31.37
2018-03-06T08:16:17.959Z,27.43
2018-03-06T08:18:46.259Z,31.57
2018-03-06T08:21:13.818Z,33.37
2018-03-06T08:23:41.328Z,28.50
2018-03-06T08:26:08.956Z,32.27
2018-03-06T08:28:36.507Z,35.17
2018-03-06T08:31:05.344Z,32.77
2018-03-06T08:33:32.970Z,30.73
2018-03-06T08:36:00.529Z,31.00
2018-03-06T08:38:28.855Z,33.77
2018-03-06T08:40:56.379Z,31.53
2018-03-06T08:43:23.895Z,33.53
2018-03-06T08:45:51.414Z,33.17
2018-03-06T08:48:18.961Z,32.00
2018-03-06T08:50:47.238Z,31.00
2018-03-06T08:53:15.622Z,33.40
2018-03-06T08:55:43.897Z,28.97
2018-03-06T08:58:12.172Z,29.97
2018-03-06T09:00:40.475Z,30.63
2018-03-06T09:03:09.172Z,28.30
2018-03-06T09:05:36.695Z,27.07
2018-03-06T09:08:04.222Z,23.37
2018-03-06T09:10:31.729Z,25.43
2018-03-06T09:13:00.042Z,23.33
2018-03-06T09:15:29.161Z,25.30
2018-03-06T09:17:56.702Z,23.60
2018-03-06T09:20:24.273Z,23.23
2018-03-06T09:22:51.825Z,21.77
2018-03-06T09:25:20.111Z,23.20
2018-03-06T09:27:48.380Z,24.37
2018-03-06T09:30:16.652Z,25.63
2018-03-06T09:32:44.945Z,25.57
2018-03-06T09:35:13.224Z,23.13
2018-03-06T09:37:41.501Z,24.03
2018-03-06T09:40:09.780Z,23.80
2018-03-06T09:42:38.069Z,24.67
2018-03-06T09:45:06.380Z,26.83
2018-03-06T09:47:33.908Z,25.00
2018-03-06T09:50:02.216Z,24.90
2018-03-06T09:52:29.721Z,28.63
2018-03-06T09:54:57.254Z,23.87
2018-03-06T09:57:25.807Z,24.93
2018-03-06T09:59:54.204Z,29.60
2018-03-06T10:02:21.730Z,26.90
2018-03-06T10:04:49.314Z,26.20
2018-03-06T10:07:17.613Z,27.00
2018-03-06T10:09:45.131Z,27.07
2018-03-06T10:12:12.637Z,28.00
2018-03-06T10:14:41.089Z,26.77
2018-03-06T10:17:08.614Z,25.53
2018-03-06T10:19:36.144Z,26.97
2018-03-06T10:22:03.663Z,27.67
2018-03-06T10:24:31.268Z,27.03
2018-03-06T10:26:59.544Z,27.27
2018-03-06T10:29:27.833Z,28.23
2018-03-06T10:31:55.435Z,28.67
2018-03-06T10:34:22.947Z,26.77
2018-03-06T10:36:51.242Z,31.70
2018-03-06T10:39:18.768Z,34.73
2018-03-06T10:41:46.356Z,31.37
2018-03-06T10:44:14.648Z,31.17
2018-03-06T10:46:42.924Z,31.07
2018-03-06T10:49:11.208Z,30.73
2018-03-06T10:51:39.491Z,28.00
2018-03-06T10:54:07.769Z,30.27
2018-03-06T10:56:36.059Z,30.80
2018-03-06T10:59:03.613Z,27.60
2018-03-06T11:01:32.821Z,32.67
2018-03-06T11:04:00.391Z,31.13
2018-03-06T11:06:27.898Z,31.33
2018-03-06T11:08:55.417Z,28.27
2018-03-06T11:11:22.937Z,32.27
2018-03-06T11:13:50.537Z,27.97
2018-03-06T11:16:18.819Z,31.97
2018-03-06T11:18:47.107Z,32.10
2018-03-06T11:21:14.648Z,37.30
2018-03-06T11:23:42.943Z,32.57
2018-03-06T11:26:11.321Z,31.40
2018-03-06T11:28:39.604Z,31.33
2018-03-06T11:31:07.887Z,31.10
2018-03-06T11:33:36.262Z,35.20
2018-03-06T11:36:04.544Z,33.50
2018-03-06T11:38:32.822Z,30.20
2018-03-06T11:41:01.105Z,29.37
2018-03-06T11:43:29.488Z,29.43
2018-03-06T11:45:57.783Z,31.17
2018-03-06T11:48:25.294Z,30.57
2018-03-06T11:50:52.799Z,29.50
2018-03-06T11:53:21.081Z,29.20
2018-03-06T11:55:49.358Z,31.00
2018-03-06T11:58:17.747Z,30.73
2018-03-06T12:00:46.031Z,29.17
2018-03-06T12:03:13.548Z,30.20
2018-03-06T12:05:41.104Z,28.00
2018-03-06T12:08:08.632Z,29.57
2018-03-06T12:10:36.144Z,29.57
2018-03-06T12:13:03.651Z,28.43
2018-03-06T12:15:31.208Z,29.40
2018-03-06T12:18:00.357Z,30.13
2018-03-06T12:20:27.877Z,32.03
2018-03-06T12:22:55.437Z,28.20
2018-03-06T12:25:22.997Z,28.97
2018-03-06T12:27:51.277Z,25.30
2018-03-06T12:30:19.660Z,27.23
2018-03-06T12:32:47.929Z,27.80
2018-03-06T12:35:16.200Z,27.50
2018-03-06T12:37:43.719Z,27.40
2018-03-06T12:40:11.251Z,25.03
2018-03-06T12:42:39.535Z,26.63
2018-03-06T12:45:07.042Z,25.27
2018-03-06T12:47:34.556Z,27.43
2018-03-06T12:50:02.835Z,27.47
2018-03-06T12:52:31.109Z,25.33
2018-03-06T12:54:59.455Z,26.47
2018-03-06T12:57:26.933Z,24.23
2018-03-06T12:59:54.445Z,26.80
2018-03-06T13:02:22.150Z,24.43
2018-03-06T13:04:49.671Z,26.57
2018-03-06T13:07:17.218Z,24.57
2018-03-06T13:09:45.500Z,26.47
2018-03-06T13:12:13.889Z,23.77
2018-03-06T13:14:41.754Z,24.83
2018-03-06T13:17:10.038Z,24.50
2018-03-06T13:19:37.556Z,25.60
2018-03-06T13:22:05.161Z,25.43
2018-03-06T13:24:33.439Z,27.10
2018-03-06T13:27:01.842Z,26.10
2018-03-06T13:29:29.390Z,25.07
2018-03-06T13:31:57.677Z,24.00
2018-03-06T13:34:25.203Z,25.13
2018-03-06T13:36:52.724Z,21.67
2018-03-06T13:39:20.266Z,22.67
2018-03-06T13:41:48.561Z,23.13
2018-03-06T13:44:16.080Z,23.03
2018-03-06T13:46:43.584Z,20.10
2018-03-06T13:49:11.156Z,21.70
2018-03-06T13:51:38.664Z,26.03
2018-03-06T13:54:06.185Z,22.93
2018-03-06T13:56:33.697Z,22.73
2018-03-06T13:59:01.283Z,27.77
2018-03-06T14:01:29.575Z,22.23
2018-03-06T14:03:57.089Z,20.97
2018-03-06T14:06:24.710Z,21.17
2018-03-06T14:08:52.261Z,25.03
2018-03-06T14:11:20.535Z,23.00
2018-03-06T14:13:48.925Z,23.93
2018-03-06T14:16:17.205Z,24.47
2018-03-06T14:18:45.598Z,20.97
2018-03-06T14:21:13.156Z,20.23
2018-03-06T14:23:41.429Z,19.80
2018-03-06T14:26:09.713Z,20.67
2018-03-06T14:28:37.984Z,22.87
2018-03-06T14:31:06.893Z,20.23
2018-03-06T14:33:35.272Z,21.83
2018-03-06T14:36:03.656Z,22.33
2018-03-06T14:38:31.938Z,22.87
2018-03-06T14:41:00.315Z,22.10
2018-03-06T14:43:28.605Z,18.60
2018-03-06T14:45:56.885Z,29.40
2018-03-06T14:48:25.255Z,27.47
2018-03-06T14:50:53.535Z,22.80
2018-03-06T14:53:21.807Z,21.17
2018-03-06T14:55:49.384Z,22.73
2018-03-06T14:58:17.682Z,23.93
2018-03-06T15:00:45.197Z,22.47
2018-03-06T15:03:12.806Z,26.17
2018-03-06T15:05:40.324Z,31.63
2018-03-06T15:08:08.235Z,30.77
2018-03-06T15:10:36.514Z,24.50
2018-03-06T15:13:04.786Z,23.30
2018-03-06T15:15:33.085Z,27.47
2018-03-06T15:18:00.645Z,25.57
2018-03-06T15:20:28.170Z,24.23
2018-03-06T15:22:55.704Z,26.30
2018-03-06T15:25:23.239Z,25.73
2018-03-06T15:27:50.748Z,27.13
2018-03-06T15:30:18.374Z,25.10
2018-03-06T15:32:45.925Z,23.30
2018-03-06T15:35:14.318Z,23.20
2018-03-06T15:37:41.826Z,27.33
2018-03-06T15:40:09.365Z,23.67
2018-03-06T15:42:37.437Z,32.20
2018-03-06T15:45:04.986Z,26.23
2018-03-06T15:47:32.577Z,21.87
2018-03-06T15:50:00.235Z,24.23
2018-03-06T15:52:27.784Z,22.63
2018-03-06T15:54:55.341Z,22.87
2018-03-06T15:57:22.882Z,23.77
2018-03-06T15:59:51.209Z,20.70
2018-03-06T16:02:18.772Z,24.27
2018-03-06T16:04:46.336Z,22.93
2018-03-06T16:07:14.267Z,24.33
2018-03-06T16:09:42.575Z,21.60
2018-03-06T16:12:10.115Z,21.27
2018-03-06T16:14:38.445Z,23.00
2018-03-06T16:17:06.006Z,21.50
2018-03-06T16:19:33.547Z,19.97
2018-03-06T16:22:01.130Z,20.57
2018-03-06T16:24:28.696Z,22.57
2018-03-06T16:26:56.246Z,19.93
2018-03-06T16:29:23.812Z,18.83
2018-03-06T16:31:51.368Z,19.77
2018-03-06T16:34:18.908Z,18.90
2018-03-06T16:36:47.240Z,18.57
2018-03-06T16:39:14.800Z,18.43
2018-03-06T16:41:42.533Z,17.53
2018-03-06T16:44:10.949Z,15.73
2018-03-06T16:46:38.493Z,19.57
2018-03-06T16:49:06.041Z,18.10
2018-03-06T16:51:34.366Z,16.77
2018-03-06T16:54:01.926Z,17.03
2018-03-06T16:56:29.477Z,16.03
2018-03-06T16:58:57.065Z,16.00
2018-03-06T17:01:24.613Z,14.87
2018-03-06T17:03:52.178Z,14.17
2018-03-06T17:06:19.734Z,15.70
2018-03-06T17:08:47.282Z,14.97
2018-03-06T17:11:14.875Z,15.23
2018-03-06T17:13:42.530Z,15.37
2018-03-06T17:16:10.507Z,13.80
2018-03-06T17:18:38.105Z,14.53
2018-03-06T17:21:05.751Z,13.20
2018-03-06T17:23:33.302Z,13.60
2018-03-06T17:26:00.996Z,18.90
2018-03-06T17:28:29.534Z,19.43
2018-03-06T17:30:57.079Z,18.73
2018-03-06T17:33:25.405Z,18.80
2018-03-06T17:35:52.956Z,16.30
2018-03-06T17:38:20.506Z,16.67
2018-03-06T17:40:48.059Z,15.87
2018-03-06T17:43:16.403Z,15.70
2018-03-06T17:45:44.046Z,15.30
2018-03-06T17:48:11.611Z,14.33
2018-03-06T17:50:39.182Z,16.07
2018-03-06T17:53:06.726Z,16.13
2018-03-06T17:55:34.269Z,16.53
2018-03-06T17:58:02.806Z,15.23
2018-03-06T18:00:30.348Z,15.97
2018-03-06T18:02:57.895Z,13.20
2018-03-06T18:05:25.492Z,16.97
2018-03-06T18:07:53.150Z,14.77
2018-03-06T18:10:20.714Z,15.53
2018-03-06T18:12:48.905Z,15.77
2018-03-06T18:15:16.532Z,32.33
2018-03-06T18:17:44.076Z,25.33
2018-03-06T18:20:12.404Z,27.13
2018-03-06T18:22:39.978Z,24.40
2018-03-06T18:25:07.537Z,29.90
2018-03-06T18:27:35.109Z,20.10
2018-03-06T18:30:02.653Z,23.33
2018-03-06T18:32:30.209Z,22.53
2018-03-06T18:34:57.769Z,18.83
2018-03-06T18:37:25.334Z,21.20
2018-03-06T18:39:52.895Z,22.83
2018-03-06T18:42:20.446Z,22.83
2018-03-06T18:44:48.873Z,20.90
2018-03-06T18:47:16.434Z,20.67
2018-03-06T18:50:01.614Z,19.10
2018-03-06T18:52:29.267Z,21.20
2018-03-06T18:54:56.831Z,20.87
2018-03-06T18:57:24.386Z,19.13
2018-03-06T19:00:14.790Z,21.00
2018-03-06T19:02:55.126Z,20.23
2018-03-06T19:05:34.454Z,20.60
2018-03-06T19:08:01.998Z,21.77
2018-03-06T19:10:31.194Z,23.70
2018-03-06T19:12:59.518Z,21.40
2018-03-06T19:15:27.059Z,22.97
2018-03-06T19:17:55.242Z,22.83
2018-03-06T19:20:22.805Z,25.17
2018-03-06T19:22:50.355Z,21.20
2018-03-06T19:25:17.976Z,24.03
2018-03-06T19:27:45.639Z,23.50
2018-03-06T19:30:13.195Z,20.33
2018-03-06T19:32:40.755Z,26.50
2018-03-06T19:35:08.269Z,25.57
2018-03-06T19:37:37.556Z,24.87
2018-03-06T19:40:05.093Z,23.17
2018-03-06T19:42:32.598Z,23.33
2018-03-06T19:45:00.887Z,24.73
2018-03-06T19:47:29.159Z,24.27
2018-03-06T19:49:57.455Z,26.13
2018-03-06T19:52:24.975Z,27.20
2018-03-06T19:54:52.581Z,22.03
2018-03-06T19:57:20.157Z,20.80
2018-03-06T19:59:47.672Z,21.07
2018-03-06T20:02:15.267Z,24.27
2018-03-06T20:04:43.651Z,23.27
2018-03-06T20:07:11.933Z,25.33
2018-03-06T20:09:40.210Z,21.67
2018-03-06T20:12:08.486Z,24.63
2018-03-06T20:14:42.510Z,25.10
2018-03-06T20:17:10.783Z,20.97
2018-03-06T20:19:40.906Z,22.67
2018-03-06T20:22:09.292Z,19.37
2018-03-06T20:24:58.264Z,21.47
2018-03-06T20:27:25.772Z,19.50
2018-03-06T20:29:53.306Z,25.37
2018-03-06T20:32:26.988Z,21.03
2018-03-06T20:34:54.748Z,23.17
2018-03-06T20:37:23.037Z,22.27
2018-03-06T20:39:56.836Z,22.03
2018-03-06T20:42:25.255Z,23.70
2018-03-06T20:44:52.766Z,18.63
2018-03-06T20:47:22.938Z,19.37
2018-03-06T20:49:50.452Z,21.03
2018-03-06T20:52:18.732Z,21.20
2018-03-06T20:54:52.756Z,22.97
2018-03-06T20:57:21.030Z,21.03
2018-03-06T20:59:49.325Z,19.13
2018-03-06T21:02:16.908Z,19.60
2018-03-06T21:04:44.430Z,18.63
2018-03-06T21:07:11.954Z,20.23
2018-03-06T21:09:39.470Z,20.63
2018-03-06T21:12:07.753Z,19.83
2018-03-06T21:14:36.028Z,19.53
2018-03-06T21:17:04.339Z,18.83
2018-03-06T21:19:31.855Z,20.43
2018-03-06T21:21:59.468Z,19.33
2018-03-06T21:24:26.982Z,17.17
2018-03-06T21:26:54.592Z,19.83
2018-03-06T21:29:22.598Z,17.83
2018-03-06T21:31:51.065Z,16.97
2018-03-06T21:34:18.593Z,22.00
2018-03-06T21:36:46.878Z,17.40
2018-03-06T21:39:15.263Z,39.67
2018-03-06T21:41:43.541Z,40.73
2018-03-06T21:44:11.929Z,38.07
2018-03-06T21:46:40.757Z,32.87
2018-03-06T21:49:08.280Z,27.40
2018-03-06T21:51:36.561Z,29.50
2018-03-06T21:54:04.947Z,23.17
2018-03-06T21:56:33.948Z,23.47
2018-03-06T21:59:01.451Z,24.50
2018-03-06T22:01:28.960Z,23.80
2018-03-06T22:03:57.237Z,25.20
2018-03-06T22:06:25.522Z,22.23
2018-03-06T22:08:53.798Z,21.43
2018-03-06T22:11:22.099Z,22.80
2018-03-06T22:13:49.628Z,23.43
2018-03-06T22:16:17.132Z,22.23
2018-03-06T22:18:44.690Z,23.20
2018-03-06T22:21:12.209Z,23.37
2018-03-06T22:23:39.730Z,19.67
2018-03-06T22:26:07.254Z,19.63
2018-03-06T22:28:35.299Z,18.77
2018-03-06T22:31:02.809Z,18.73
2018-03-06T22:33:31.093Z,18.73
2018-03-06T22:35:59.582Z,18.83
2018-03-06T22:38:27.978Z,18.53
2018-03-06T22:40:55.533Z,21.33
2018-03-06T22:43:23.090Z,18.30
2018-03-06T22:45:51.469Z,16.47
2018-03-06T22:48:19.751Z,16.27
2018-03-06T22:50:48.019Z,16.27
2018-03-06T22:53:16.293Z,15.63
2018-03-06T22:55:43.873Z,16.37
2018-03-06T22:58:12.261Z,15.10
2018-03-06T23:00:40.538Z,14.63
2018-03-06T23:03:08.923Z,13.87
2018-03-06T23:05:37.314Z,14.33
2018-03-06T23:08:05.717Z,14.70
2018-03-06T23:10:33.260Z,15.43
2018-03-06T23:13:00.779Z,14.30
2018-03-06T23:15:28.376Z,13.83
2018-03-06T23:17:56.662Z,12.57
2018-03-06T23:20:25.276Z,13.27
2018-03-06T23:22:52.787Z,12.63
2018-03-06T23:25:20.311Z,12.13
2018-03-06T23:27:47.840Z,12.63
2018-03-06T23:30:16.785Z,12.00
2018-03-06T23:32:44.307Z,11.80
2018-03-06T23:35:11.814Z,12.73
2018-03-06T23:37:39.431Z,12.00
2018-03-06T23:40:07.706Z,11.17
2018-03-06T23:42:36.087Z,11.73
2018-03-06T23:45:04.365Z,11.03
2018-03-06T23:47:32.653Z,11.67
2018-03-06T23:50:01.038Z,11.03
2018-03-06T23:52:29.306Z,10.40
2018-03-06T23:54:57.700Z,11.17
2018-03-06T23:57:25.974Z,10.70
2018-03-06T23:59:54.247Z,9.87
